Time;durP1;ratioP1;P1;durP2;ratioP2;P2;SDS_P1;SDS_P2;PMS_P1;PMS_P2;Temp;Humidity;BMP_temperature;BMP_pressure;BME280_temperature;BME280_humidity;BME280_pressure;Samples;Min_cycle;Max_cycle;Signal;HPM_P1;HPM_P2
2022/02/21 00:00:07;;;;;;;0.38;0.38;;;;;;;;;;5060078;28;20025;-55
2022/02/21 00:02:33;;;;;;;0.73;0.45;;;;;;;;;;5060603;28;20036;-55
2022/02/21 00:04:59;;;;;;;2.60;0.60;;;;;;;;;;5070605;28;20423;-54
2022/02/21 00:07:25;;;;;;;0.52;0.40;;;;;;;;;;5070638;28;20029;-51
2022/02/21 00:09:51;;;;;;;0.77;0.52;;;;;;;;;;5068213;28;20025;-50
2022/02/21 00:12:17;;;;;;;0.55;0.40;;;;;;;;;;5062254;28;20471;-55
2022/02/21 00:14:43;;;;;;;0.30;0.30;;;;;;;;;;5072570;28;20096;-50
2022/02/21 00:17:09;;;;;;;1.30;0.50;;;;;;;;;;5068554;28;20036;-51
2022/02/21 00:19:35;;;;;;;0.85;0.63;;;;;;;;;;5071257;28;20116;-50
2022/02/21 00:22:01;;;;;;;1.17;0.52;;;;;;;;;;5067892;28;20485;-50
2022/02/21 00:24:27;;;;;;;4.10;0.70;;;;;;;;;;5074146;28;20036;-49
2022/02/21 00:26:53;;;;;;;0.60;0.60;;;;;;;;;;5066905;28;20028;-49
2022/02/21 00:29:19;;;;;;;0.63;0.50;;;;;;;;;;5061095;28;20527;-50
2022/02/21 00:31:45;;;;;;;0.68;0.50;;;;;;;;;;5068789;28;20029;-50
2022/02/21 00:34:11;;;;;;;1.40;0.45;;;;;;;;;;5073638;28;20032;-49
2022/02/21 00:36:37;;;;;;;0.65;0.40;;;;;;;;;;5058641;28;20512;-49
2022/02/21 00:39:03;;;;;;;0.98;0.40;;;;;;;;;;5075226;28;20017;-49
2022/02/21 00:41:29;;;;;;;1.50;0.35;;;;;;;;;;5073840;28;20102;-49
2022/02/21 00:43:55;;;;;;;0.60;0.30;;;;;;;;;;5072149;28;20024;-49
2022/02/21 00:46:21;;;;;;;0.70;0.40;;;;;;;;;;5065882;28;20385;-52
2022/02/21 00:48:47;;;;;;;0.93;0.40;;;;;;;;;;5068196;28;20035;-52
2022/02/21 00:51:13;;;;;;;0.50;0.50;;;;;;;;;;5066496;28;20025;-54
2022/02/21 00:53:39;;;;;;;1.85;0.38;;;;;;;;;;5068508;28;20024;-51
2022/02/21 00:56:06;;;;;;;0.50;0.50;;;;;;;;;;5061424;28;20137;-53
2022/02/21 00:58:32;;;;;;;0.98;0.40;;;;;;;;;;5065489;28;20037;-49
2022/02/21 01:00:58;;;;;;;1.02;0.38;;;;;;;;;;5060158;28;20391;-50
2022/02/21 01:03:23;;;;;;;1.27;0.40;;;;;;;;;;5064799;28;20025;-50
2022/02/21 01:05:50;;;;;;;0.80;0.50;;;;;;;;;;5074199;28;20032;-49
2022/02/21 01:08:16;;;;;;;0.65;0.40;;;;;;;;;;5063571;28;20035;-50
2022/02/21 01:10:41;;;;;;;1.00;0.30;;;;;;;;;;5061799;28;20029;-49
2022/02/21 01:13:08;;;;;;;1.00;0.40;;;;;;;;;;5064201;28;20032;-51
2022/02/21 01:15:34;;;;;;;1.88;0.32;;;;;;;;;;5066387;28;20032;-48
2022/02/21 01:18:00;;;;;;;2.17;0.52;;;;;;;;;;5065681;28;20032;-49
2022/02/21 01:20:26;;;;;;;0.40;0.30;;;;;;;;;;5066390;28;20037;-49
2022/02/21 01:22:52;;;;;;;0.95;0.40;;;;;;;;;;5073821;28;20024;-53
2022/02/21 01:25:18;;;;;;;2.30;0.40;;;;;;;;;;5066800;28;20528;-50
2022/02/21 01:27:44;;;;;;;1.98;0.52;;;;;;;;;;5066737;28;20068;-50
2022/02/21 01:30:11;;;;;;;1.00;0.40;;;;;;;;;;5059650;28;20032;-49
2022/02/21 01:32:37;;;;;;;0.30;0.30;;;;;;;;;;5066586;28;20465;-52
2022/02/21 01:35:04;;;;;;;1.40;0.82;;;;;;;;;;5061515;28;20104;-51
2022/02/21 01:37:30;;;;;;;1.48;0.30;;;;;;;;;;5072418;28;20043;-49
2022/02/21 01:39:56;;;;;;;3.47;0.60;;;;;;;;;;5067680;28;20029;-51
2022/02/21 01:42:21;;;;;;;3.95;0.40;;;;;;;;;;5062354;28;20107;-54
2022/02/21 01:44:48;;;;;;;0.68;0.25;;;;;;;;;;5055280;28;20453;-51
2022/02/21 01:47:16;;;;;;;0.95;0.40;;;;;;;;;;5061189;28;20024;-48
2022/02/21 01:49:42;;;;;;;0.60;0.30;;;;;;;;;;5070972;28;20025;-48
2022/02/21 01:52:09;;;;;;;0.85;0.30;;;;;;;;;;5068761;28;20484;-48
2022/02/21 01:54:35;;;;;;;0.60;0.30;;;;;;;;;;5061451;28;20040;-49
2022/02/21 01:57:01;;;;;;;1.67;0.30;;;;;;;;;;5063568;28;20033;-48
2022/02/21 01:59:27;;;;;;;0.63;0.47;;;;;;;;;;5065894;28;20029;-48
2022/02/21 02:01:54;;;;;;;0.47;0.30;;;;;;;;;;5063096;28;20074;-50
2022/02/21 02:04:20;;;;;;;0.30;0.30;;;;;;;;;;5068186;28;20091;-50
2022/02/21 02:06:49;;;;;;;0.20;0.20;;;;;;;;;;5069128;28;20040;-50
2022/02/21 02:09:15;;;;;;;0.60;0.50;;;;;;;;;;5073752;28;20514;-52
2022/02/21 02:11:42;;;;;;;0.28;0.22;;;;;;;;;;5072856;28;20035;-51
2022/02/21 02:14:08;;;;;;;0.30;0.25;;;;;;;;;;5065381;28;20021;-49
2022/02/21 02:16:35;;;;;;;1.17;0.50;;;;;;;;;;5058124;28;20025;-51
2022/02/21 02:19:01;;;;;;;0.47;0.30;;;;;;;;;;5062983;28;20455;-51
2022/02/21 02:21:28;;;;;;;1.35;0.22;;;;;;;;;;5061510;28;20465;-55
2022/02/21 02:23:54;;;;;;;2.63;0.52;;;;;;;;;;5056442;28;20086;-53
2022/02/21 02:26:22;;;;;;;0.95;0.50;;;;;;;;;;5069870;28;20032;-51
2022/02/21 02:28:50;;;;;;;1.02;0.30;;;;;;;;;;5073702;28;20032;-55
2022/02/21 02:31:16;;;;;;;1.75;0.60;;;;;;;;;;5066660;28;20042;-58
2022/02/21 02:33:42;;;;;;;1.95;0.30;;;;;;;;;;5062640;28;20029;-56
2022/02/21 02:36:08;;;;;;;1.25;0.40;;;;;;;;;;5069776;28;20032;-53
2022/02/21 02:38:40;;;;;;;2.22;0.38;;;;;;;;;;5072697;28;20054;-55
2022/02/21 02:41:07;;;;;;;1.00;0.47;;;;;;;;;;5065019;28;20036;-51
2022/02/21 02:43:33;;;;;;;0.60;0.30;;;;;;;;;;5071046;28;20058;-52
2022/02/21 02:45:59;;;;;;;1.55;0.40;;;;;;;;;;5061707;28;20028;-52
2022/02/21 02:48:25;;;;;;;0.20;0.20;;;;;;;;;;5071457;28;20039;-52
2022/02/21 02:50:51;;;;;;;1.25;0.40;;;;;;;;;;5066727;28;20020;-51
2022/02/21 02:53:17;;;;;;;0.20;0.20;;;;;;;;;;5067331;28;20025;-53
2022/02/21 02:55:43;;;;;;;0.80;0.45;;;;;;;;;;5065416;28;20114;-52
2022/02/21 02:58:09;;;;;;;0.30;0.30;;;;;;;;;;5060126;28;20024;-50
2022/02/21 03:00:35;;;;;;;0.68;0.30;;;;;;;;;;5059802;28;20075;-54
2022/02/21 03:03:01;;;;;;;0.40;0.30;;;;;;;;;;5065109;28;20071;-53
2022/02/21 03:05:27;;;;;;;0.45;0.40;;;;;;;;;;5060108;28;20033;-55
2022/02/21 03:07:53;;;;;;;0.70;0.30;;;;;;;;;;5068373;28;20040;-55
2022/02/21 03:10:19;;;;;;;1.00;0.30;;;;;;;;;;5067678;28;20048;-51
2022/02/21 03:12:45;;;;;;;0.43;0.20;;;;;;;;;;5067077;28;20406;-55
2022/02/21 03:15:11;;;;;;;0.20;0.20;;;;;;;;;;5057139;28;20032;-54
2022/02/21 03:17:37;;;;;;;0.50;0.30;;;;;;;;;;5071538;28;20028;-54
2022/02/21 03:20:04;;;;;;;0.82;0.50;;;;;;;;;;5070073;28;20058;-56
2022/02/21 03:22:30;;;;;;;2.05;0.50;;;;;;;;;;5054960;28;20033;-56
2022/02/21 03:24:58;;;;;;;1.75;0.40;;;;;;;;;;5066742;28;20029;-52
2022/02/21 03:27:24;;;;;;;1.17;0.50;;;;;;;;;;5067154;28;20032;-51
2022/02/21 03:29:50;;;;;;;0.95;0.40;;;;;;;;;;5062725;28;20343;-51
2022/02/21 03:32:16;;;;;;;2.63;0.30;;;;;;;;;;5058650;28;20083;-51
2022/02/21 03:34:42;;;;;;;0.75;0.43;;;;;;;;;;5064451;28;20033;-51
2022/02/21 03:37:08;;;;;;;0.57;0.38;;;;;;;;;;5069766;28;20043;-50
2022/02/21 03:39:34;;;;;;;0.30;0.30;;;;;;;;;;5064706;28;20504;-51
2022/02/21 03:42:00;;;;;;;0.22;0.22;;;;;;;;;;5061920;28;20056;-50
2022/02/21 03:44:26;;;;;;;0.20;0.20;;;;;;;;;;5053028;28;20040;-52
2022/02/21 03:46:52;;;;;;;0.35;0.30;;;;;;;;;;5068883;28;20067;-53
2022/02/21 03:49:18;;;;;;;1.58;0.55;;;;;;;;;;5067531;28;20423;-50
2022/02/21 03:51:44;;;;;;;0.20;0.20;;;;;;;;;;5058896;28;20112;-50
2022/02/21 03:54:11;;;;;;;0.30;0.30;;;;;;;;;;5059031;28;20048;-54
2022/02/21 03:56:37;;;;;;;1.40;0.70;;;;;;;;;;5058238;28;20059;-55
2022/02/21 03:59:03;;;;;;;0.20;0.20;;;;;;;;;;5054309;28;20021;-51
2022/02/21 04:01:29;;;;;;;0.65;0.45;;;;;;;;;;5063321;28;20024;-55
2022/02/21 04:03:55;;;;;;;0.80;0.50;;;;;;;;;;5058911;28;20796;-53
2022/02/21 04:06:21;;;;;;;0.73;0.50;;;;;;;;;;5072229;28;20485;-54
2022/02/21 04:08:47;;;;;;;0.60;0.40;;;;;;;;;;5070224;28;20028;-52
2022/02/21 04:11:13;;;;;;;0.47;0.40;;;;;;;;;;5067417;28;20085;-54
2022/02/21 04:13:39;;;;;;;0.35;0.25;;;;;;;;;;5062596;28;20028;-50
2022/02/21 04:16:05;;;;;;;0.75;0.30;;;;;;;;;;5068941;28;20027;-49
2022/02/21 04:18:31;;;;;;;0.38;0.30;;;;;;;;;;5062133;28;20112;-51
2022/02/21 04:20:57;;;;;;;1.38;0.35;;;;;;;;;;5070135;28;20131;-52
2022/02/21 04:23:23;;;;;;;0.75;0.38;;;;;;;;;;5069069;28;20013;-51
2022/02/21 04:25:49;;;;;;;2.60;0.47;;;;;;;;;;5062963;28;20029;-50
2022/02/21 04:28:18;;;;;;;1.40;0.40;;;;;;;;;;5063123;28;20017;-50
2022/02/21 04:30:44;;;;;;;0.80;0.40;;;;;;;;;;5062161;28;20518;-50
2022/02/21 04:33:10;;;;;;;1.20;0.22;;;;;;;;;;5069395;28;20059;-51
2022/02/21 04:35:36;;;;;;;1.08;0.20;;;;;;;;;;5068304;28;20060;-51
2022/02/21 04:38:02;;;;;;;0.30;0.30;;;;;;;;;;5068402;28;20515;-51
2022/02/21 04:40:29;;;;;;;0.57;0.30;;;;;;;;;;5070999;28;20119;-51
2022/02/21 04:42:56;;;;;;;0.40;0.40;;;;;;;;;;5065724;28;20086;-53
2022/02/21 04:45:22;;;;;;;0.40;0.40;;;;;;;;;;5058950;28;20365;-50
2022/02/21 04:47:48;;;;;;;3.83;0.35;;;;;;;;;;5059054;28;20102;-50
2022/02/21 04:50:14;;;;;;;0.95;0.38;;;;;;;;;;5067664;28;20029;-50
2022/02/21 04:52:40;;;;;;;0.57;0.30;;;;;;;;;;5069554;28;20031;-54
2022/02/21 04:55:07;;;;;;;1.40;0.35;;;;;;;;;;5059501;28;20045;-55
2022/02/21 04:57:33;;;;;;;2.22;0.60;;;;;;;;;;5070647;28;20024;-54
2022/02/21 04:59:59;;;;;;;0.60;0.40;;;;;;;;;;5071403;28;20059;-50
2022/02/21 05:02:25;;;;;;;0.70;0.30;;;;;;;;;;5070886;28;20511;-51
2022/02/21 05:04:52;;;;;;;1.88;0.60;;;;;;;;;;5065035;28;20045;-53
2022/02/21 05:07:18;;;;;;;0.20;0.20;;;;;;;;;;5057280;28;20033;-55
2022/02/21 05:09:44;;;;;;;1.50;0.68;;;;;;;;;;5065103;28;20033;-49
2022/02/21 05:12:10;;;;;;;2.17;0.47;;;;;;;;;;5069545;28;20031;-51
2022/02/21 05:14:36;;;;;;;2.03;0.90;;;;;;;;;;5073137;28;20036;-50
2022/02/21 05:17:02;;;;;;;1.85;0.57;;;;;;;;;;5065120;28;20107;-51
2022/02/21 05:19:28;;;;;;;1.95;0.40;;;;;;;;;;5073673;28;20028;-50
2022/02/21 05:21:55;;;;;;;5.38;0.95;;;;;;;;;;5060184;28;20049;-50
2022/02/21 05:24:21;;;;;;;2.80;0.55;;;;;;;;;;5073440;28;20040;-51
2022/02/21 05:26:47;;;;;;;1.90;0.77;;;;;;;;;;5060817;28;20025;-53
2022/02/21 05:29:13;;;;;;;2.42;0.70;;;;;;;;;;5066909;28;20028;-54
2022/02/21 05:31:39;;;;;;;2.15;0.40;;;;;;;;;;5061053;28;20017;-53
2022/02/21 05:34:05;;;;;;;1.67;0.50;;;;;;;;;;5055902;28;20029;-51
2022/02/21 05:36:31;;;;;;;3.75;0.60;;;;;;;;;;5058807;28;20507;-56
2022/02/21 05:38:57;;;;;;;2.63;0.55;;;;;;;;;;5066842;28;20445;-55
2022/02/21 05:41:23;;;;;;;1.85;0.50;;;;;;;;;;5069297;28;20078;-50
2022/02/21 05:43:49;;;;;;;4.82;0.60;;;;;;;;;;5068684;28;20029;-49
2022/02/21 05:46:15;;;;;;;4.57;0.60;;;;;;;;;;5069223;28;20392;-50
2022/02/21 05:48:41;;;;;;;2.53;0.50;;;;;;;;;;5072289;28;20033;-50
2022/02/21 05:51:07;;;;;;;1.55;0.60;;;;;;;;;;5062957;28;20477;-52
2022/02/21 05:53:33;;;;;;;2.35;0.70;;;;;;;;;;5061439;28;20029;-54
2022/02/21 05:55:59;;;;;;;3.53;0.90;;;;;;;;;;5063553;28;20043;-49
2022/02/21 05:58:25;;;;;;;2.08;0.60;;;;;;;;;;5066603;28;20025;-50
2022/02/21 06:00:51;;;;;;;1.85;0.90;;;;;;;;;;5065484;28;20024;-55
2022/02/21 06:03:17;;;;;;;4.10;0.77;;;;;;;;;;5064715;28;20675;-56
2022/02/21 06:05:46;;;;;;;4.32;0.60;;;;;;;;;;5066663;28;20074;-51
2022/02/21 06:08:12;;;;;;;3.67;0.52;;;;;;;;;;5062441;28;20086;-55
2022/02/21 06:10:38;;;;;;;4.53;0.65;;;;;;;;;;5064383;28;20074;-51
2022/02/21 06:13:04;;;;;;;3.50;0.70;;;;;;;;;;5069424;28;20412;-55
2022/02/21 06:15:30;;;;;;;6.25;0.50;;;;;;;;;;5064275;28;20020;-54
2022/02/21 06:17:58;;;;;;;4.30;1.10;;;;;;;;;;5065932;28;20024;-50
2022/02/21 06:20:24;;;;;;;3.25;1.30;;;;;;;;;;5065541;28;20025;-52
2022/02/21 06:22:50;;;;;;;2.20;0.80;;;;;;;;;;5068503;28;20048;-51
2022/02/21 06:25:16;;;;;;;1.75;0.50;;;;;;;;;;5071974;28;20063;-51
2022/02/21 06:27:42;;;;;;;4.45;0.98;;;;;;;;;;5072670;28;20029;-49
2022/02/21 06:30:09;;;;;;;3.72;1.10;;;;;;;;;;5071898;28;20055;-50
2022/02/21 06:32:35;;;;;;;3.40;0.50;;;;;;;;;;5056665;28;20021;-50
2022/02/21 06:35:01;;;;;;;0.93;0.60;;;;;;;;;;5061950;28;20103;-55
2022/02/21 06:37:27;;;;;;;5.03;0.70;;;;;;;;;;5068213;28;20124;-55
2022/02/21 06:39:53;;;;;;;5.15;0.82;;;;;;;;;;5073250;28;20391;-56
2022/02/21 06:42:19;;;;;;;3.60;0.80;;;;;;;;;;5070190;28;20040;-54
2022/02/21 06:44:45;;;;;;;2.08;0.65;;;;;;;;;;5071594;28;20048;-50
2022/02/21 06:47:11;;;;;;;3.45;0.80;;;;;;;;;;5073290;28;20074;-51
2022/02/21 06:49:38;;;;;;;6.18;0.77;;;;;;;;;;5070212;28;20029;-50
2022/02/21 06:52:04;;;;;;;0.80;0.40;;;;;;;;;;5072797;28;20020;-52
2022/02/21 06:54:30;;;;;;;2.03;0.80;;;;;;;;;;5070989;28;20107;-49
2022/02/21 06:56:56;;;;;;;3.75;0.82;;;;;;;;;;5069123;28;20469;-54
2022/02/21 06:59:22;;;;;;;7.03;1.00;;;;;;;;;;5058798;28;20028;-50
2022/02/21 07:01:48;;;;;;;3.78;0.60;;;;;;;;;;5062332;28;20372;-51
2022/02/21 07:04:14;;;;;;;3.05;0.98;;;;;;;;;;5060987;28;20025;-49
2022/02/21 07:06:40;;;;;;;3.30;0.93;;;;;;;;;;5065076;28;20377;-52
2022/02/21 07:09:07;;;;;;;5.32;0.90;;;;;;;;;;5068685;28;20085;-52
2022/02/21 07:11:33;;;;;;;2.22;1.05;;;;;;;;;;5068337;28;20086;-54
2022/02/21 07:13:59;;;;;;;4.78;1.10;;;;;;;;;;5066679;28;20023;-53
2022/02/21 07:16:26;;;;;;;7.68;1.23;;;;;;;;;;5063129;28;20032;-53
2022/02/21 07:18:52;;;;;;;4.63;1.55;;;;;;;;;;5064576;28;20035;-51
2022/02/21 07:21:18;;;;;;;9.25;2.10;;;;;;;;;;5067011;28;20025;-53
2022/02/21 07:23:44;;;;;;;7.68;1.30;;;;;;;;;;5064636;28;20047;-54
2022/02/21 07:26:10;;;;;;;7.82;1.85;;;;;;;;;;5060946;28;20041;-53
2022/02/21 07:28:36;;;;;;;13.43;1.63;;;;;;;;;;5070247;28;20028;-52
2022/02/21 07:31:02;;;;;;;5.28;1.02;;;;;;;;;;5069366;28;20388;-54
2022/02/21 07:33:28;;;;;;;7.57;1.58;;;;;;;;;;5070265;28;20428;-49
2022/02/21 07:35:56;;;;;;;5.60;1.60;;;;;;;;;;5071996;28;20036;-51
2022/02/21 07:38:22;;;;;;;6.85;1.10;;;;;;;;;;5070900;28;20056;-52
2022/02/21 07:40:48;;;;;;;9.25;1.77;;;;;;;;;;5068474;28;20036;-50
2022/02/21 07:43:13;;;;;;;9.95;2.13;;;;;;;;;;5070866;28;20024;-52
2022/02/21 07:45:39;;;;;;;6.90;1.48;;;;;;;;;;5067292;28;20025;-55
2022/02/21 07:48:05;;;;;;;9.23;1.75;;;;;;;;;;5067845;28;20032;-54
2022/02/21 07:50:33;;;;;;;11.50;1.70;;;;;;;;;;5064087;28;20354;-55
2022/02/21 07:52:59;;;;;;;14.55;1.60;;;;;;;;;;5067187;28;20397;-52
2022/02/21 07:55:26;;;;;;;7.30;1.63;;;;;;;;;;5067142;28;20060;-50
2022/02/21 07:57:52;;;;;;;4.28;1.15;;;;;;;;;;5068032;28;20397;-51
2022/02/21 08:00:18;;;;;;;7.28;1.42;;;;;;;;;;5068998;28;20108;-50
2022/02/21 08:02:44;;;;;;;5.20;1.42;;;;;;;;;;5071182;28;20024;-53
2022/02/21 08:05:11;;;;;;;3.83;0.90;;;;;;;;;;5067551;28;20036;-51
2022/02/21 08:07:38;;;;;;;9.18;1.23;;;;;;;;;;5065883;28;20033;-50
2022/02/21 08:10:04;;;;;;;4.75;1.00;;;;;;;;;;5068519;28;20024;-50
2022/02/21 08:12:31;;;;;;;6.40;1.40;;;;;;;;;;5061690;28;20056;-52
2022/02/21 08:14:57;;;;;;;2.35;1.00;;;;;;;;;;5061697;28;20089;-51
2022/02/21 08:17:23;;;;;;;5.22;1.20;;;;;;;;;;5064576;28;20024;-53
2022/02/21 08:19:49;;;;;;;3.33;1.20;;;;;;;;;;5065572;28;20103;-50
2022/02/21 08:22:15;;;;;;;2.13;0.70;;;;;;;;;;5065331;28;20035;-53
2022/02/21 08:24:41;;;;;;;5.25;0.77;;;;;;;;;;5067137;28;20400;-54
2022/02/21 08:27:07;;;;;;;6.63;1.40;;;;;;;;;;5064112;28;20032;-54
2022/02/21 08:29:33;;;;;;;8.60;1.38;;;;;;;;;;5064153;28;20035;-52
2022/02/21 08:31:59;;;;;;;7.10;1.17;;;;;;;;;;5074546;28;20020;-50
2022/02/21 08:34:27;;;;;;;4.13;0.90;;;;;;;;;;5075120;28;20066;-54
2022/02/21 08:36:53;;;;;;;4.40;1.25;;;;;;;;;;5075259;28;20021;-50
2022/02/21 08:39:19;;;;;;;5.05;1.13;;;;;;;;;;5071094;28;20069;-54
2022/02/21 08:41:45;;;;;;;4.05;0.90;;;;;;;;;;5071514;28;20048;-52
2022/02/21 08:44:11;;;;;;;5.45;0.80;;;;;;;;;;5062903;28;20028;-51
2022/02/21 08:46:37;;;;;;;4.07;0.70;;;;;;;;;;5072182;28;20162;-51
2022/02/21 08:49:04;;;;;;;6.00;1.33;;;;;;;;;;5071647;28;20021;-51
2022/02/21 08:51:30;;;;;;;5.72;1.60;;;;;;;;;;5067610;28;20111;-51
2022/02/21 08:53:56;;;;;;;7.63;1.35;;;;;;;;;;5074530;28;20041;-51
2022/02/21 08:56:22;;;;;;;5.10;1.60;;;;;;;;;;5069719;28;20036;-54
2022/02/21 08:58:48;;;;;;;5.85;0.98;;;;;;;;;;5067131;28;20024;-54
2022/02/21 09:01:14;;;;;;;6.07;1.23;;;;;;;;;;5074523;28;20033;-54
2022/02/21 09:03:41;;;;;;;3.40;1.15;;;;;;;;;;5068237;28;20036;-54
2022/02/21 09:06:08;;;;;;;6.63;1.65;;;;;;;;;;5072152;28;20055;-50
2022/02/21 09:08:34;;;;;;;7.78;1.45;;;;;;;;;;5070742;28;20021;-50
2022/02/21 09:11:01;;;;;;;5.63;1.00;;;;;;;;;;5069632;28;20012;-51
2022/02/21 09:13:27;;;;;;;4.75;0.77;;;;;;;;;;5072592;28;20474;-50
2022/02/21 09:15:53;;;;;;;5.95;1.50;;;;;;;;;;5069510;28;20025;-52
2022/02/21 09:18:19;;;;;;;5.95;1.15;;;;;;;;;;5066995;28;20029;-51
2022/02/21 09:20:45;;;;;;;8.93;1.48;;;;;;;;;;5071884;28;20480;-52
2022/02/21 09:23:11;;;;;;;3.35;1.20;;;;;;;;;;5063846;28;20020;-54
2022/02/21 09:25:37;;;;;;;4.53;0.82;;;;;;;;;;5074421;28;20059;-50
2022/02/21 09:28:03;;;;;;;1.83;0.70;;;;;;;;;;5070206;28;20056;-51
2022/02/21 09:30:29;;;;;;;6.75;1.50;;;;;;;;;;5074583;28;20024;-49
2022/02/21 09:32:55;;;;;;;3.50;1.20;;;;;;;;;;5066497;28;20032;-54
2022/02/21 09:35:22;;;;;;;4.90;0.90;;;;;;;;;;5068175;28;20039;-54
2022/02/21 09:37:48;;;;;;;8.00;1.00;;;;;;;;;;5064898;28;20171;-52
2022/02/21 09:40:15;;;;;;;4.50;0.95;;;;;;;;;;5074338;28;20035;-50
2022/02/21 09:42:42;;;;;;;8.00;0.88;;;;;;;;;;5066554;28;20108;-51
2022/02/21 09:45:09;;;;;;;8.15;0.90;;;;;;;;;;5068485;28;20388;-51
2022/02/21 09:47:35;;;;;;;2.15;0.70;;;;;;;;;;5068218;28;20032;-51
2022/02/21 09:50:01;;;;;;;3.97;1.02;;;;;;;;;;5072934;28;20028;-51
2022/02/21 09:52:28;;;;;;;9.73;0.95;;;;;;;;;;5063813;28;20082;-49
2022/02/21 09:54:54;;;;;;;7.72;1.15;;;;;;;;;;5062872;28;20049;-52
2022/02/21 09:57:21;;;;;;;6.10;0.85;;;;;;;;;;5065572;28;20036;-51
2022/02/21 09:59:47;;;;;;;6.28;1.13;;;;;;;;;;5073202;28;20533;-50
2022/02/21 10:02:24;;;;;;;2.70;1.13;;;;;;;;;;5071871;28;20123;-49
2022/02/21 10:05:08;;;;;;;6.80;0.82;;;;;;;;;;5072328;28;20032;-50
2022/02/21 10:07:36;;;;;;;8.45;1.20;;;;;;;;;;5074152;28;20064;-49
2022/02/21 10:10:03;;;;;;;5.90;1.33;;;;;;;;;;5069624;28;20060;-50
2022/02/21 10:12:30;;;;;;;4.82;1.13;;;;;;;;;;5071736;28;20747;-50
2022/02/21 10:14:57;;;;;;;5.97;1.30;;;;;;;;;;5074086;28;20073;-54
2022/02/21 10:17:24;;;;;;;5.97;1.35;;;;;;;;;;5065862;28;20032;-55
2022/02/21 10:20:02;;;;;;;5.15;1.15;;;;;;;;;;5064753;28;20040;-54
2022/02/21 10:22:32;;;;;;;4.72;0.98;;;;;;;;;;5057090;28;20041;-52
2022/02/21 10:24:58;;;;;;;6.40;1.50;;;;;;;;;;5066691;28;20028;-53
2022/02/21 10:27:26;;;;;;;4.25;1.00;;;;;;;;;;5072626;28;20111;-50
2022/02/21 10:30:00;;;;;;;5.72;1.17;;;;;;;;;;5065844;28;20029;-50
2022/02/21 10:32:26;;;;;;;;;;;;;;;;;;5073693;28;20086;-51
2022/02/21 10:34:53;;;;;;;5.72;1.00;;;;;;;;;;5073212;28;20265;-52
2022/02/21 10:37:28;;;;;;;6.20;1.10;;;;;;;;;;5067563;28;20029;-54
2022/02/21 10:40:29;;;;;;;2.30;0.82;;;;;;;;;;5067909;28;20029;-49
2022/02/21 10:43:06;;;;;;;5.63;0.77;;;;;;;;;;5009614;28;20073;-54
2022/02/21 10:45:33;;;;;;;6.53;0.88;;;;;;;;;;5065296;28;20039;-51
2022/02/21 10:48:00;;;;;;;4.93;1.23;;;;;;;;;;5072937;28;20021;-54
2022/02/21 10:50:26;;;;;;;5.15;1.10;;;;;;;;;;5073175;28;20063;-50
2022/02/21 10:52:52;;;;;;;2.85;0.85;;;;;;;;;;5072713;28;20063;-50
2022/02/21 10:55:18;;;;;;;6.50;1.13;;;;;;;;;;5072791;28;20056;-49
2022/02/21 10:57:47;;;;;;;5.00;1.27;;;;;;;;;;5069060;28;20036;-49
2022/02/21 11:00:13;;;;;;;8.38;1.33;;;;;;;;;;5072998;28;20021;-49
2022/02/21 11:02:40;;;;;;;5.82;1.05;;;;;;;;;;5068973;28;20062;-50
2022/02/21 11:05:09;;;;;;;7.05;1.25;;;;;;;;;;5068100;28;20036;-50
2022/02/21 11:07:35;;;;;;;7.43;1.35;;;;;;;;;;5072729;28;20031;-50
2022/02/21 11:10:03;;;;;;;3.85;1.08;;;;;;;;;;5072696;28;20024;-49
2022/02/21 11:12:35;;;;;;;6.15;1.13;;;;;;;;;;5064026;28;20032;-53
2022/02/21 11:15:01;;;;;;;6.53;1.70;;;;;;;;;;5063236;28;20025;-53
2022/02/21 11:17:28;;;;;;;6.45;1.85;;;;;;;;;;5070294;28;20369;-52
2022/02/21 11:19:55;;;;;;;3.17;0.85;;;;;;;;;;5070476;28;20031;-52
2022/02/21 11:22:21;;;;;;;3.10;1.05;;;;;;;;;;5062777;28;20384;-50
2022/02/21 11:25:00;;;;;;;5.78;1.20;;;;;;;;;;5069789;28;20174;-50
2022/02/21 11:27:44;;;;;;;4.28;1.42;;;;;;;;;;5062802;28;20037;-56
2022/02/21 11:30:11;;;;;;;3.97;1.10;;;;;;;;;;5058589;28;20469;-55
2022/02/21 11:32:43;;;;;;;3.22;1.45;;;;;;;;;;5066043;28;20596;-51
2022/02/21 11:35:13;;;;;;;4.47;1.27;;;;;;;;;;5070555;28;20120;-53
2022/02/21 11:37:40;;;;;;;8.13;1.25;;;;;;;;;;5071584;28;20155;-50
2022/02/21 11:40:06;;;;;;;3.60;1.45;;;;;;;;;;5069377;28;20028;-50
2022/02/21 11:42:33;;;;;;;1.50;1.08;;;;;;;;;;5071732;28;20020;-49
2022/02/21 11:45:00;;;;;;;5.70;1.38;;;;;;;;;;5066459;28;20356;-49
2022/02/21 11:47:35;;;;;;;4.15;1.35;;;;;;;;;;5064906;28;20029;-50
2022/02/21 11:50:03;;;;;;;2.28;1.33;;;;;;;;;;5068572;28;20563;-53
2022/02/21 11:52:31;;;;;;;5.45;1.40;;;;;;;;;;5067617;28;20028;-50
2022/02/21 11:54:57;;;;;;;4.60;1.40;;;;;;;;;;5073588;28;20147;-50
2022/02/21 11:57:37;;;;;;;6.20;1.10;;;;;;;;;;5071563;28;20071;-49
2022/02/21 12:00:22;;;;;;;6.07;0.98;;;;;;;;;;5054715;28;20025;-49
2022/02/21 12:03:17;;;;;;;3.65;1.13;;;;;;;;;;5060825;28;20040;-49
2022/02/21 12:05:43;;;;;;;3.00;1.15;;;;;;;;;;5051145;28;20055;-50
2022/02/21 12:08:37;;;;;;;6.22;1.08;;;;;;;;;;5067710;28;20028;-49
2022/02/21 12:11:03;;;;;;;3.80;0.90;;;;;;;;;;5069358;28;20165;-51
2022/02/21 12:13:30;;;;;;;5.07;0.80;;;;;;;;;;5070358;28;20028;-50
2022/02/21 12:16:00;;;;;;;5.45;1.63;;;;;;;;;;5071436;28;20013;-50
2022/02/21 12:18:32;;;;;;;3.08;1.65;;;;;;;;;;5066180;28;20111;-50
2022/02/21 12:21:14;;;;;;;9.55;1.17;;;;;;;;;;5069295;28;20514;-51
2022/02/21 12:23:55;;;;;;;4.82;1.48;;;;;;;;;;5067625;28;20487;-52
2022/02/21 12:26:28;;;;;;;7.22;1.30;;;;;;;;;;5071696;28;20032;-49
2022/02/21 12:29:16;;;;;;;6.90;1.20;;;;;;;;;;5069504;28;20025;-51
2022/02/21 12:31:57;;;;;;;5.85;1.00;;;;;;;;;;5067429;28;20378;-50
2022/02/21 12:34:24;;;;;;;3.15;1.02;;;;;;;;;;5068691;28;20090;-50
2022/02/21 12:36:51;;;;;;;7.13;1.13;;;;;;;;;;5071517;28;20090;-50
2022/02/21 12:39:23;;;;;;;4.85;1.60;;;;;;;;;;5071754;28;20093;-50
2022/02/21 12:41:50;;;;;;;5.25;1.20;;;;;;;;;;5070971;28;20093;-50
2022/02/21 12:44:16;;;;;;;3.90;1.33;;;;;;;;;;5067156;28;20089;-53
2022/02/21 12:46:43;;;;;;;2.42;1.10;;;;;;;;;;5055417;28;20541;-55
2022/02/21 12:49:40;;;;;;;5.28;1.05;;;;;;;;;;5057026;28;20109;-54
2022/02/21 12:52:07;;;;;;;7.78;1.65;;;;;;;;;;5048742;28;20033;-52
2022/02/21 12:54:34;;;;;;;2.67;1.00;;;;;;;;;;5064794;28;20408;-56
2022/02/21 12:57:04;;;;;;;11.52;2.13;;;;;;;;;;5070515;28;20024;-51
2022/02/21 12:59:31;;;;;;;8.15;1.45;;;;;;;;;;5067757;28;20452;-56
2022/02/21 13:02:00;;;;;;;3.80;0.90;;;;;;;;;;5067960;28;20729;-54
2022/02/21 13:04:30;;;;;;;2.55;0.85;;;;;;;;;;5060675;28;20025;-54
2022/02/21 13:06:58;;;;;;;4.35;0.82;;;;;;;;;;5071127;28;20059;-54
2022/02/21 13:09:25;;;;;;;6.90;1.20;;;;;;;;;;5062707;28;20029;-49
2022/02/21 13:11:55;;;;;;;10.45;1.55;;;;;;;;;;5067251;28;20107;-53
2022/02/21 13:14:47;;;;;;;6.30;1.02;;;;;;;;;;5056632;28;20032;-54
2022/02/21 13:17:14;;;;;;;4.82;1.02;;;;;;;;;;5060016;28;20151;-51
2022/02/21 13:19:42;;;;;;;4.32;0.82;;;;;;;;;;5067603;28;20029;-52
2022/02/21 13:22:09;;;;;;;5.93;1.48;;;;;;;;;;5063739;28;20373;-50
2022/02/21 13:24:36;;;;;;;4.45;0.98;;;;;;;;;;5067807;28;20202;-50
2022/02/21 13:27:04;;;;;;;6.22;1.33;;;;;;;;;;5066038;28;20395;-49
2022/02/21 13:29:35;;;;;;;6.30;1.33;;;;;;;;;;5074370;28;20024;-50
2022/02/21 13:32:02;;;;;;;3.70;1.15;;;;;;;;;;5068268;28;20021;-49
2022/02/21 13:34:47;;;;;;;4.45;1.30;;;;;;;;;;5065380;28;20542;-49
2022/02/21 13:37:21;;;;;;;5.80;1.58;;;;;;;;;;5057800;28;20039;-52
2022/02/21 13:39:48;;;;;;;6.53;1.63;;;;;;;;;;5057263;28;20017;-50
2022/02/21 13:42:15;;;;;;;4.15;1.23;;;;;;;;;;5070531;28;20449;-50
2022/02/21 13:44:41;;;;;;;6.15;1.20;;;;;;;;;;5060159;28;20032;-50
2022/02/21 13:47:07;;;;;;;3.78;1.40;;;;;;;;;;5063153;28;20024;-50
2022/02/21 13:49:37;;;;;;;5.55;2.13;;;;;;;;;;5071367;28;20476;-54
2022/02/21 13:52:04;;;;;;;4.35;0.98;;;;;;;;;;5073575;28;20457;-51
2022/02/21 13:54:30;;;;;;;7.18;0.90;;;;;;;;;;5071994;28;20055;-56
2022/02/21 13:57:12;;;;;;;8.48;1.45;;;;;;;;;;5066416;28;20025;-50
2022/02/21 13:59:42;;;;;;;4.13;1.20;;;;;;;;;;5058420;28;20028;-54
2022/02/21 14:02:18;;;;;;;2.80;0.82;;;;;;;;;;5061831;28;20275;-52
2022/02/21 14:04:44;;;;;;;2.90;0.77;;;;;;;;;;5069547;28;20063;-52
2022/02/21 14:07:10;;;;;;;2.15;0.82;;;;;;;;;;5064537;28;20021;-51
2022/02/21 14:09:36;;;;;;;2.25;0.85;;;;;;;;;;5064756;28;20032;-54
2022/02/21 14:12:12;;;;;;;1.45;0.70;;;;;;;;;;5066355;28;20028;-50
2022/02/21 14:14:38;;;;;;;2.67;0.90;;;;;;;;;;5060683;28;20027;-55
2022/02/21 14:17:04;;;;;;;4.80;0.80;;;;;;;;;;5071219;28;20020;-55
2022/02/21 14:19:30;;;;;;;5.10;1.00;;;;;;;;;;5072492;28;20036;-52
2022/02/21 14:22:00;;;;;;;4.60;1.00;;;;;;;;;;5072714;28;20032;-51
2022/02/21 14:24:27;;;;;;;5.05;0.82;;;;;;;;;;5068357;28;20025;-55
2022/02/21 14:26:53;;;;;;;4.72;1.58;;;;;;;;;;5065512;28;20020;-54
2022/02/21 14:29:19;;;;;;;4.97;1.35;;;;;;;;;;5060873;28;20082;-50
2022/02/21 14:31:45;;;;;;;2.15;1.10;;;;;;;;;;5067907;28;20423;-51
2022/02/21 14:34:11;;;;;;;7.72;1.38;;;;;;;;;;5062801;28;20100;-55
2022/02/21 14:36:37;;;;;;;4.45;1.15;;;;;;;;;;5072694;28;20472;-55
2022/02/21 14:39:04;;;;;;;3.03;1.17;;;;;;;;;;5072089;28;20107;-53
2022/02/21 14:41:30;;;;;;;5.78;1.20;;;;;;;;;;5068048;28;20461;-55
2022/02/21 14:43:56;;;;;;;6.63;1.40;;;;;;;;;;5071163;28;20103;-50